sensor_id;sensor_type;location;lat;lon;timestamp;P1;durP1;ratioP1;P2;durP2;ratioP2
70406;SDS011;57821;52.202;0.154;2023-05-07T00:00:59;49.20;;;22.38;;
70406;SDS011;57821;52.202;0.154;2023-05-07T00:03:26;54.38;;;22.80;;
70406;SDS011;57821;52.202;0.154;2023-05-07T00:05:53;54.50;;;23.23;;
70406;SDS011;57821;52.202;0.154;2023-05-07T00:08:20;48.97;;;23.27;;
70406;SDS011;57821;52.202;0.154;2023-05-07T00:10:47;47.88;;;22.42;;
70406;SDS011;57821;52.202;0.154;2023-05-07T00:13:14;42.08;;;21.02;;
70406;SDS011;57821;52.202;0.154;2023-05-07T00:15:41;51.85;;;22.67;;
70406;SDS011;57821;52.202;0.154;2023-05-07T00:18:07;51.60;;;22.63;;
70406;SDS011;57821;52.202;0.154;2023-05-07T00:20:34;49.05;;;21.10;;
70406;SDS011;57821;52.202;0.154;2023-05-07T00:23:01;49.40;;;21.25;;
70406;SDS011;57821;52.202;0.154;2023-05-07T00:25:28;46.35;;;20.77;;
70406;SDS011;57821;52.202;0.154;2023-05-07T00:27:55;43.60;;;20.33;;
70406;SDS011;57821;52.202;0.154;2023-05-07T00:30:21;52.05;;;21.33;;
70406;SDS011;57821;52.202;0.154;2023-05-07T00:32:48;36.67;;;16.90;;
70406;SDS011;57821;52.202;0.154;2023-05-07T00:35:15;44.92;;;20.30;;
70406;SDS011;57821;52.202;0.154;2023-05-07T00:37:41;52.38;;;20.77;;
70406;SDS011;57821;52.202;0.154;2023-05-07T00:40:08;51.00;;;20.42;;
70406;SDS011;57821;52.202;0.154;2023-05-07T00:42:35;55.90;;;20.73;;
70406;SDS011;57821;52.202;0.154;2023-05-07T00:45:02;46.85;;;21.25;;
70406;SDS011;57821;52.202;0.154;2023-05-07T00:47:29;50.13;;;21.33;;
70406;SDS011;57821;52.202;0.154;2023-05-07T00:49:56;45.70;;;20.02;;
70406;SDS011;57821;52.202;0.154;2023-05-07T00:52:23;53.30;;;20.60;;
70406;SDS011;57821;52.202;0.154;2023-05-07T00:54:52;43.83;;;20.58;;
70406;SDS011;57821;52.202;0.154;2023-05-07T00:57:18;50.05;;;21.88;;
70406;SDS011;57821;52.202;0.154;2023-05-07T00:59:46;47.80;;;19.52;;
70406;SDS011;57821;52.202;0.154;2023-05-07T01:02:13;65.28;;;21.98;;
70406;SDS011;57821;52.202;0.154;2023-05-07T01:04:40;57.92;;;21.08;;
70406;SDS011;57821;52.202;0.154;2023-05-07T01:07:07;66.50;;;22.25;;
70406;SDS011;57821;52.202;0.154;2023-05-07T01:09:34;54.83;;;20.83;;
70406;SDS011;57821;52.202;0.154;2023-05-07T01:12:02;60.85;;;22.77;;
70406;SDS011;57821;52.202;0.154;2023-05-07T01:14:29;59.20;;;23.33;;
70406;SDS011;57821;52.202;0.154;2023-05-07T01:16:56;64.68;;;23.90;;
70406;SDS011;57821;52.202;0.154;2023-05-07T01:19:23;69.05;;;22.52;;
70406;SDS011;57821;52.202;0.154;2023-05-07T01:21:51;72.28;;;23.27;;
70406;SDS011;57821;52.202;0.154;2023-05-07T01:24:19;69.00;;;23.58;;
70406;SDS011;57821;52.202;0.154;2023-05-07T01:26:46;63.17;;;24.05;;
70406;SDS011;57821;52.202;0.154;2023-05-07T01:29:15;56.85;;;23.38;;
70406;SDS011;57821;52.202;0.154;2023-05-07T01:31:43;58.58;;;22.77;;
70406;SDS011;57821;52.202;0.154;2023-05-07T01:34:10;50.65;;;22.70;;
70406;SDS011;57821;52.202;0.154;2023-05-07T01:36:39;59.67;;;22.38;;
70406;SDS011;57821;52.202;0.154;2023-05-07T01:39:06;45.20;;;19.75;;
70406;SDS011;57821;52.202;0.154;2023-05-07T01:41:35;45.85;;;20.63;;
70406;SDS011;57821;52.202;0.154;2023-05-07T01:44:02;46.90;;;20.52;;
70406;SDS011;57821;52.202;0.154;2023-05-07T01:46:30;39.00;;;19.27;;
70406;SDS011;57821;52.202;0.154;2023-05-07T01:48:57;44.33;;;20.17;;
70406;SDS011;57821;52.202;0.154;2023-05-07T01:51:25;42.17;;;19.33;;
70406;SDS011;57821;52.202;0.154;2023-05-07T01:53:52;44.03;;;19.95;;
70406;SDS011;57821;52.202;0.154;2023-05-07T01:56:19;47.63;;;19.77;;
70406;SDS011;57821;52.202;0.154;2023-05-07T01:58:47;52.60;;;20.10;;
70406;SDS011;57821;52.202;0.154;2023-05-07T02:01:14;45.72;;;21.13;;
70406;SDS011;57821;52.202;0.154;2023-05-07T02:03:42;49.03;;;19.73;;
70406;SDS011;57821;52.202;0.154;2023-05-07T02:06:17;53.20;;;20.38;;
70406;SDS011;57821;52.202;0.154;2023-05-07T02:08:44;43.17;;;19.30;;
70406;SDS011;57821;52.202;0.154;2023-05-07T02:11:12;44.92;;;19.23;;
70406;SDS011;57821;52.202;0.154;2023-05-07T02:13:39;45.72;;;19.60;;
70406;SDS011;57821;52.202;0.154;2023-05-07T02:16:06;52.38;;;20.13;;
70406;SDS011;57821;52.202;0.154;2023-05-07T02:18:33;38.83;;;18.27;;
70406;SDS011;57821;52.202;0.154;2023-05-07T02:20:59;44.63;;;17.80;;
70406;SDS011;57821;52.202;0.154;2023-05-07T02:23:26;47.38;;;18.30;;
70406;SDS011;57821;52.202;0.154;2023-05-07T02:25:53;45.97;;;17.80;;
70406;SDS011;57821;52.202;0.154;2023-05-07T02:28:19;43.00;;;18.98;;
70406;SDS011;57821;52.202;0.154;2023-05-07T02:31:03;35.58;;;17.02;;
70406;SDS011;57821;52.202;0.154;2023-05-07T02:33:31;46.75;;;17.83;;
70406;SDS011;57821;52.202;0.154;2023-05-07T02:36:05;46.33;;;18.80;;
70406;SDS011;57821;52.202;0.154;2023-05-07T02:38:50;45.20;;;18.60;;
70406;SDS011;57821;52.202;0.154;2023-05-07T02:41:16;47.00;;;19.40;;
70406;SDS011;57821;52.202;0.154;2023-05-07T02:43:43;33.05;;;16.55;;
70406;SDS011;57821;52.202;0.154;2023-05-07T02:46:10;43.38;;;18.77;;
70406;SDS011;57821;52.202;0.154;2023-05-07T02:48:41;38.92;;;18.00;;
70406;SDS011;57821;52.202;0.154;2023-05-07T02:51:08;36.72;;;16.17;;
70406;SDS011;57821;52.202;0.154;2023-05-07T02:53:37;38.03;;;17.65;;
70406;SDS011;57821;52.202;0.154;2023-05-07T02:56:04;37.80;;;17.98;;
70406;SDS011;57821;52.202;0.154;2023-05-07T02:58:30;38.10;;;18.25;;
70406;SDS011;57821;52.202;0.154;2023-05-07T03:00:59;40.97;;;18.40;;
70406;SDS011;57821;52.202;0.154;2023-05-07T03:03:39;43.28;;;18.70;;
70406;SDS011;57821;52.202;0.154;2023-05-07T03:06:06;45.63;;;18.35;;
70406;SDS011;57821;52.202;0.154;2023-05-07T03:08:33;45.30;;;19.17;;
70406;SDS011;57821;52.202;0.154;2023-05-07T03:10:59;52.10;;;19.08;;
70406;SDS011;57821;52.202;0.154;2023-05-07T03:13:26;53.83;;;20.48;;
70406;SDS011;57821;52.202;0.154;2023-05-07T03:15:53;53.75;;;19.88;;
70406;SDS011;57821;52.202;0.154;2023-05-07T03:18:20;45.45;;;18.67;;
70406;SDS011;57821;52.202;0.154;2023-05-07T03:20:47;38.20;;;18.20;;
70406;SDS011;57821;52.202;0.154;2023-05-07T03:23:16;36.75;;;16.27;;
70406;SDS011;57821;52.202;0.154;2023-05-07T03:25:42;33.65;;;16.42;;
70406;SDS011;57821;52.202;0.154;2023-05-07T03:28:09;29.63;;;14.63;;
70406;SDS011;57821;52.202;0.154;2023-05-07T03:30:42;38.50;;;16.38;;
70406;SDS011;57821;52.202;0.154;2023-05-07T03:33:08;36.40;;;16.35;;
70406;SDS011;57821;52.202;0.154;2023-05-07T03:35:36;32.88;;;15.57;;
70406;SDS011;57821;52.202;0.154;2023-05-07T03:38:02;28.75;;;14.15;;
70406;SDS011;57821;52.202;0.154;2023-05-07T03:40:32;32.80;;;14.90;;
70406;SDS011;57821;52.202;0.154;2023-05-07T03:42:59;34.50;;;15.70;;
70406;SDS011;57821;52.202;0.154;2023-05-07T03:45:29;35.63;;;16.10;;
70406;SDS011;57821;52.202;0.154;2023-05-07T03:48:05;32.60;;;15.70;;
70406;SDS011;57821;52.202;0.154;2023-05-07T03:50:32;34.88;;;15.38;;
70406;SDS011;57821;52.202;0.154;2023-05-07T03:52:59;39.30;;;16.45;;
70406;SDS011;57821;52.202;0.154;2023-05-07T03:55:26;35.05;;;14.95;;
70406;SDS011;57821;52.202;0.154;2023-05-07T03:57:57;40.55;;;15.82;;
70406;SDS011;57821;52.202;0.154;2023-05-07T04:00:26;37.15;;;16.38;;
70406;SDS011;57821;52.202;0.154;2023-05-07T04:02:57;40.97;;;16.27;;
70406;SDS011;57821;52.202;0.154;2023-05-07T04:05:26;47.10;;;17.10;;
70406;SDS011;57821;52.202;0.154;2023-05-07T04:07:57;36.88;;;16.50;;
70406;SDS011;57821;52.202;0.154;2023-05-07T04:10:31;37.70;;;16.23;;
70406;SDS011;57821;52.202;0.154;2023-05-07T04:13:02;36.03;;;15.50;;
70406;SDS011;57821;52.202;0.154;2023-05-07T04:15:29;41.53;;;16.25;;
70406;SDS011;57821;52.202;0.154;2023-05-07T04:17:56;42.42;;;17.00;;
70406;SDS011;57821;52.202;0.154;2023-05-07T04:20:24;42.30;;;17.70;;
70406;SDS011;57821;52.202;0.154;2023-05-07T04:22:57;38.05;;;17.17;;
70406;SDS011;57821;52.202;0.154;2023-05-07T04:25:24;44.67;;;17.05;;
70406;SDS011;57821;52.202;0.154;2023-05-07T04:27:52;42.15;;;17.50;;
70406;SDS011;57821;52.202;0.154;2023-05-07T04:30:24;44.75;;;17.92;;
70406;SDS011;57821;52.202;0.154;2023-05-07T04:32:51;41.58;;;17.35;;
70406;SDS011;57821;52.202;0.154;2023-05-07T04:35:20;39.17;;;16.50;;
70406;SDS011;57821;52.202;0.154;2023-05-07T04:37:46;42.70;;;17.98;;
70406;SDS011;57821;52.202;0.154;2023-05-07T04:40:13;42.45;;;17.08;;
70406;SDS011;57821;52.202;0.154;2023-05-07T04:42:41;39.70;;;16.75;;
70406;SDS011;57821;52.202;0.154;2023-05-07T04:45:09;43.17;;;18.65;;
70406;SDS011;57821;52.202;0.154;2023-05-07T04:47:38;33.33;;;16.27;;
70406;SDS011;57821;52.202;0.154;2023-05-07T04:50:06;36.25;;;16.38;;
70406;SDS011;57821;52.202;0.154;2023-05-07T04:52:34;45.38;;;17.85;;
70406;SDS011;57821;52.202;0.154;2023-05-07T04:55:01;42.75;;;18.85;;
70406;SDS011;57821;52.202;0.154;2023-05-07T04:57:33;40.60;;;17.58;;
70406;SDS011;57821;52.202;0.154;2023-05-07T05:00:00;38.63;;;17.08;;
70406;SDS011;57821;52.202;0.154;2023-05-07T05:02:30;37.55;;;17.13;;
70406;SDS011;57821;52.202;0.154;2023-05-07T05:04:57;40.33;;;16.77;;
70406;SDS011;57821;52.202;0.154;2023-05-07T05:07:24;38.63;;;16.35;;
70406;SDS011;57821;52.202;0.154;2023-05-07T05:09:51;38.63;;;16.13;;
70406;SDS011;57821;52.202;0.154;2023-05-07T05:12:18;36.00;;;16.98;;
70406;SDS011;57821;52.202;0.154;2023-05-07T05:14:44;41.00;;;17.77;;
70406;SDS011;57821;52.202;0.154;2023-05-07T05:17:12;35.92;;;16.98;;
70406;SDS011;57821;52.202;0.154;2023-05-07T05:19:38;33.83;;;15.90;;
70406;SDS011;57821;52.202;0.154;2023-05-07T05:22:05;36.08;;;16.15;;
70406;SDS011;57821;52.202;0.154;2023-05-07T05:24:32;33.83;;;16.90;;
70406;SDS011;57821;52.202;0.154;2023-05-07T05:27:00;36.17;;;17.27;;
70406;SDS011;57821;52.202;0.154;2023-05-07T05:29:28;34.72;;;17.73;;
70406;SDS011;57821;52.202;0.154;2023-05-07T05:31:55;35.67;;;16.52;;
70406;SDS011;57821;52.202;0.154;2023-05-07T05:34:21;36.67;;;17.17;;
70406;SDS011;57821;52.202;0.154;2023-05-07T05:36:48;37.13;;;16.50;;
70406;SDS011;57821;52.202;0.154;2023-05-07T05:39:15;32.85;;;16.00;;
70406;SDS011;57821;52.202;0.154;2023-05-07T05:41:41;38.47;;;16.77;;
70406;SDS011;57821;52.202;0.154;2023-05-07T05:44:08;30.50;;;16.80;;
70406;SDS011;57821;52.202;0.154;2023-05-07T05:46:35;39.17;;;17.65;;
70406;SDS011;57821;52.202;0.154;2023-05-07T05:49:02;30.35;;;15.27;;
70406;SDS011;57821;52.202;0.154;2023-05-07T05:51:30;32.33;;;15.98;;
70406;SDS011;57821;52.202;0.154;2023-05-07T05:53:57;33.63;;;16.95;;
70406;SDS011;57821;52.202;0.154;2023-05-07T05:56:24;38.60;;;16.95;;
70406;SDS011;57821;52.202;0.154;2023-05-07T05:58:50;34.33;;;15.73;;
70406;SDS011;57821;52.202;0.154;2023-05-07T06:01:17;38.28;;;16.45;;
70406;SDS011;57821;52.202;0.154;2023-05-07T06:03:48;34.63;;;15.90;;
70406;SDS011;57821;52.202;0.154;2023-05-07T06:06:16;34.65;;;15.57;;
70406;SDS011;57821;52.202;0.154;2023-05-07T06:08:43;31.20;;;15.07;;
70406;SDS011;57821;52.202;0.154;2023-05-07T06:11:12;30.63;;;14.00;;
70406;SDS011;57821;52.202;0.154;2023-05-07T06:13:42;29.70;;;14.27;;
70406;SDS011;57821;52.202;0.154;2023-05-07T06:16:09;32.75;;;15.88;;
70406;SDS011;57821;52.202;0.154;2023-05-07T06:18:36;28.80;;;14.40;;
70406;SDS011;57821;52.202;0.154;2023-05-07T06:21:03;31.90;;;14.50;;
70406;SDS011;57821;52.202;0.154;2023-05-07T06:23:32;30.70;;;15.27;;
70406;SDS011;57821;52.202;0.154;2023-05-07T06:26:00;31.15;;;14.73;;
70406;SDS011;57821;52.202;0.154;2023-05-07T06:28:32;26.98;;;13.80;;
70406;SDS011;57821;52.202;0.154;2023-05-07T06:31:10;26.27;;;13.23;;
70406;SDS011;57821;52.202;0.154;2023-05-07T06:34:01;31.27;;;15.77;;
70406;SDS011;57821;52.202;0.154;2023-05-07T06:36:33;25.23;;;13.48;;
70406;SDS011;57821;52.202;0.154;2023-05-07T06:41:30;29.33;;;14.85;;
70406;SDS011;57821;52.202;0.154;2023-05-07T06:44:04;31.77;;;14.77;;
70406;SDS011;57821;52.202;0.154;2023-05-07T06:46:37;25.08;;;14.02;;
70406;SDS011;57821;52.202;0.154;2023-05-07T06:49:05;30.17;;;13.80;;
70406;SDS011;57821;52.202;0.154;2023-05-07T06:51:32;26.30;;;13.10;;
70406;SDS011;57821;52.202;0.154;2023-05-07T06:54:01;24.38;;;13.75;;
70406;SDS011;57821;52.202;0.154;2023-05-07T06:56:29;28.38;;;15.05;;
70406;SDS011;57821;52.202;0.154;2023-05-07T06:58:55;30.40;;;14.70;;
70406;SDS011;57821;52.202;0.154;2023-05-07T07:01:22;27.05;;;15.38;;
70406;SDS011;57821;52.202;0.154;2023-05-07T07:03:49;30.98;;;16.60;;
70406;SDS011;57821;52.202;0.154;2023-05-07T07:06:16;27.85;;;14.65;;
70406;SDS011;57821;52.202;0.154;2023-05-07T07:08:42;30.15;;;14.65;;
70406;SDS011;57821;52.202;0.154;2023-05-07T07:11:12;29.05;;;13.82;;
70406;SDS011;57821;52.202;0.154;2023-05-07T07:13:39;32.45;;;15.65;;
70406;SDS011;57821;52.202;0.154;2023-05-07T07:16:06;30.40;;;14.60;;
70406;SDS011;57821;52.202;0.154;2023-05-07T07:18:35;30.85;;;14.82;;
70406;SDS011;57821;52.202;0.154;2023-05-07T07:21:03;27.75;;;14.73;;
70406;SDS011;57821;52.202;0.154;2023-05-07T07:23:29;27.00;;;14.18;;
70406;SDS011;57821;52.202;0.154;2023-05-07T07:25:56;25.95;;;14.00;;
70406;SDS011;57821;52.202;0.154;2023-05-07T07:28:23;28.08;;;14.63;;
70406;SDS011;57821;52.202;0.154;2023-05-07T07:30:50;28.27;;;14.95;;
70406;SDS011;57821;52.202;0.154;2023-05-07T07:33:17;26.20;;;13.18;;
70406;SDS011;57821;52.202;0.154;2023-05-07T07:35:43;29.63;;;15.43;;
70406;SDS011;57821;52.202;0.154;2023-05-07T07:38:10;29.88;;;14.10;;
70406;SDS011;57821;52.202;0.154;2023-05-07T07:40:37;28.05;;;15.60;;
70406;SDS011;57821;52.202;0.154;2023-05-07T07:43:05;27.08;;;15.20;;
70406;SDS011;57821;52.202;0.154;2023-05-07T07:45:32;29.58;;;15.68;;
70406;SDS011;57821;52.202;0.154;2023-05-07T07:47:59;24.98;;;13.55;;
70406;SDS011;57821;52.202;0.154;2023-05-07T07:50:26;27.17;;;14.38;;
70406;SDS011;57821;52.202;0.154;2023-05-07T07:53:09;24.75;;;13.43;;
70406;SDS011;57821;52.202;0.154;2023-05-07T07:55:39;26.77;;;14.65;;
70406;SDS011;57821;52.202;0.154;2023-05-07T07:58:06;24.30;;;13.60;;
70406;SDS011;57821;52.202;0.154;2023-05-07T08:00:33;24.35;;;14.32;;
70406;SDS011;57821;52.202;0.154;2023-05-07T08:03:00;23.27;;;13.02;;
70406;SDS011;57821;52.202;0.154;2023-05-07T08:05:31;28.10;;;13.70;;
70406;SDS011;57821;52.202;0.154;2023-05-07T08:07:59;28.73;;;14.38;;
70406;SDS011;57821;52.202;0.154;2023-05-07T08:13:02;21.35;;;12.82;;
70406;SDS011;57821;52.202;0.154;2023-05-07T08:15:29;22.52;;;12.38;;
70406;SDS011;57821;52.202;0.154;2023-05-07T08:17:56;21.60;;;12.77;;
70406;SDS011;57821;52.202;0.154;2023-05-07T08:20:24;24.70;;;13.13;;
70406;SDS011;57821;52.202;0.154;2023-05-07T08:22:51;21.88;;;12.25;;
70406;SDS011;57821;52.202;0.154;2023-05-07T08:25:18;24.85;;;12.45;;
70406;SDS011;57821;52.202;0.154;2023-05-07T08:27:46;22.27;;;13.73;;
70406;SDS011;57821;52.202;0.154;2023-05-07T08:30:13;21.38;;;12.40;;
70406;SDS011;57821;52.202;0.154;2023-05-07T08:32:42;23.25;;;13.38;;
70406;SDS011;57821;52.202;0.154;2023-05-07T08:35:09;24.17;;;13.13;;
70406;SDS011;57821;52.202;0.154;2023-05-07T08:37:35;21.00;;;12.75;;
70406;SDS011;57821;52.202;0.154;2023-05-07T08:40:02;20.23;;;12.40;;
70406;SDS011;57821;52.202;0.154;2023-05-07T08:42:35;20.55;;;12.63;;
70406;SDS011;57821;52.202;0.154;2023-05-07T08:45:03;22.77;;;13.00;;
70406;SDS011;57821;52.202;0.154;2023-05-07T08:47:34;27.73;;;12.90;;
70406;SDS011;57821;52.202;0.154;2023-05-07T08:50:08;25.55;;;12.73;;
70406;SDS011;57821;52.202;0.154;2023-05-07T08:52:36;23.13;;;13.27;;
70406;SDS011;57821;52.202;0.154;2023-05-07T08:55:03;23.98;;;13.50;;
70406;SDS011;57821;52.202;0.154;2023-05-07T08:57:31;21.98;;;13.55;;
70406;SDS011;57821;52.202;0.154;2023-05-07T08:59:59;21.48;;;13.15;;
70406;SDS011;57821;52.202;0.154;2023-05-07T09:02:26;20.40;;;12.50;;
70406;SDS011;57821;52.202;0.154;2023-05-07T09:04:54;21.88;;;13.57;;
70406;SDS011;57821;52.202;0.154;2023-05-07T09:07:21;22.63;;;12.98;;
70406;SDS011;57821;52.202;0.154;2023-05-07T09:09:48;22.10;;;13.07;;
70406;SDS011;57821;52.202;0.154;2023-05-07T09:12:15;22.70;;;13.70;;
70406;SDS011;57821;52.202;0.154;2023-05-07T09:14:41;20.80;;;13.30;;
70406;SDS011;57821;52.202;0.154;2023-05-07T09:17:08;19.83;;;12.75;;
70406;SDS011;57821;52.202;0.154;2023-05-07T09:19:35;18.30;;;11.55;;
70406;SDS011;57821;52.202;0.154;2023-05-07T09:22:05;18.08;;;12.60;;
70406;SDS011;57821;52.202;0.154;2023-05-07T09:24:47;19.05;;;12.57;;
70406;SDS011;57821;52.202;0.154;2023-05-07T09:27:15;15.88;;;9.98;;
70406;SDS011;57821;52.202;0.154;2023-05-07T09:29:44;13.88;;;8.63;;
70406;SDS011;57821;52.202;0.154;2023-05-07T09:32:12;13.10;;;9.23;;
70406;SDS011;57821;52.202;0.154;2023-05-07T09:34:39;13.20;;;7.80;;
70406;SDS011;57821;52.202;0.154;2023-05-07T09:37:06;15.77;;;8.73;;
70406;SDS011;57821;52.202;0.154;2023-05-07T09:39:40;11.20;;;7.57;;
70406;SDS011;57821;52.202;0.154;2023-05-07T09:42:08;12.07;;;8.10;;
70406;SDS011;57821;52.202;0.154;2023-05-07T09:44:35;12.85;;;8.20;;
70406;SDS011;57821;52.202;0.154;2023-05-07T09:47:04;12.88;;;8.85;;
70406;SDS011;57821;52.202;0.154;2023-05-07T09:49:38;10.10;;;6.82;;
70406;SDS011;57821;52.202;0.154;2023-05-07T09:52:08;10.45;;;7.35;;
70406;SDS011;57821;52.202;0.154;2023-05-07T09:54:41;17.27;;;8.77;;
70406;SDS011;57821;52.202;0.154;2023-05-07T09:57:09;8.90;;;6.40;;
70406;SDS011;57821;52.202;0.154;2023-05-07T09:59:39;14.73;;;7.63;;
70406;SDS011;57821;52.202;0.154;2023-05-07T10:02:13;8.20;;;5.63;;
70406;SDS011;57821;52.202;0.154;2023-05-07T10:04:47;8.48;;;5.40;;
70406;SDS011;57821;52.202;0.154;2023-05-07T10:07:17;8.93;;;5.10;;
70406;SDS011;57821;52.202;0.154;2023-05-07T10:09:46;7.78;;;5.68;;
70406;SDS011;57821;52.202;0.154;2023-05-07T10:12:23;7.00;;;4.57;;
70406;SDS011;57821;52.202;0.154;2023-05-07T10:14:50;9.70;;;6.07;;
70406;SDS011;57821;52.202;0.154;2023-05-07T10:17:20;8.75;;;4.70;;
70406;SDS011;57821;52.202;0.154;2023-05-07T10:19:48;7.90;;;5.25;;
70406;SDS011;57821;52.202;0.154;2023-05-07T10:22:17;8.60;;;4.40;;
70406;SDS011;57821;52.202;0.154;2023-05-07T10:24:46;6.47;;;4.07;;
70406;SDS011;57821;52.202;0.154;2023-05-07T10:35:16;6.05;;;3.78;;
70406;SDS011;57821;52.202;0.154;2023-05-07T10:37:47;5.93;;;3.88;;
70406;SDS011;57821;52.202;0.154;2023-05-07T10:40:15;8.48;;;4.88;;
70406;SDS011;57821;52.202;0.154;2023-05-07T10:42:57;7.35;;;4.85;;
70406;SDS011;57821;52.202;0.154;2023-05-07T10:45:28;6.35;;;3.97;;
70406;SDS011;57821;52.202;0.154;2023-05-07T10:51:19;5.13;;;3.33;;
70406;SDS011;57821;52.202;0.154;2023-05-07T10:56:44;5.68;;;3.20;;
70406;SDS011;57821;52.202;0.154;2023-05-07T11:01:53;6.13;;;4.25;;
70406;SDS011;57821;52.202;0.154;2023-05-07T11:04:36;7.15;;;4.53;;
70406;SDS011;57821;52.202;0.154;2023-05-07T11:07:29;6.45;;;3.90;;
70406;SDS011;57821;52.202;0.154;2023-05-07T11:10:08;7.20;;;5.15;;
70406;SDS011;57821;52.202;0.154;2023-05-07T11:13:00;6.15;;;4.20;;
70406;SDS011;57821;52.202;0.154;2023-05-07T11:15:39;6.78;;;4.30;;
70406;SDS011;57821;52.202;0.154;2023-05-07T11:18:17;6.13;;;3.88;;
70406;SDS011;57821;52.202;0.154;2023-05-07T11:20:46;5.82;;;3.67;;
70406;SDS011;57821;52.202;0.154;2023-05-07T11:26:27;5.68;;;3.28;;
70406;SDS011;57821;52.202;0.154;2023-05-07T11:28:55;5.85;;;3.80;;
70406;SDS011;57821;52.202;0.154;2023-05-07T11:31:25;5.80;;;3.00;;
70406;SDS011;57821;52.202;0.154;2023-05-07T11:33:55;5.55;;;3.30;;
70406;SDS011;57821;52.202;0.154;2023-05-07T11:36:22;6.90;;;3.75;;
70406;SDS011;57821;52.202;0.154;2023-05-07T11:38:52;8.85;;;4.00;;
70406;SDS011;57821;52.202;0.154;2023-05-07T11:41:19;9.45;;;5.65;;
70406;SDS011;57821;52.202;0.154;2023-05-07T11:43:55;9.70;;;6.18;;
70406;SDS011;57821;52.202;0.154;2023-05-07T11:46:23;10.35;;;6.22;;
70406;SDS011;57821;52.202;0.154;2023-05-07T11:48:50;8.30;;;5.55;;
70406;SDS011;57821;52.202;0.154;2023-05-07T11:51:23;7.82;;;5.50;;
70406;SDS011;57821;52.202;0.154;2023-05-07T11:53:51;8.63;;;5.50;;
70406;SDS011;57821;52.202;0.154;2023-05-07T11:56:19;9.32;;;6.25;;
70406;SDS011;57821;52.202;0.154;2023-05-07T11:58:46;8.90;;;6.32;;
70406;SDS011;57821;52.202;0.154;2023-05-07T12:01:14;8.32;;;5.70;;
70406;SDS011;57821;52.202;0.154;2023-05-07T12:03:41;6.80;;;4.88;;
70406;SDS011;57821;52.202;0.154;2023-05-07T12:06:09;7.22;;;5.05;;
70406;SDS011;57821;52.202;0.154;2023-05-07T12:08:37;7.00;;;4.50;;
70406;SDS011;57821;52.202;0.154;2023-05-07T12:11:08;7.60;;;4.63;;
70406;SDS011;57821;52.202;0.154;2023-05-07T12:13:55;7.93;;;5.13;;
70406;SDS011;57821;52.202;0.154;2023-05-07T12:16:25;7.50;;;4.13;;
70406;SDS011;57821;52.202;0.154;2023-05-07T12:18:53;7.20;;;3.85;;
70406;SDS011;57821;52.202;0.154;2023-05-07T12:21:20;6.60;;;4.38;;
70406;SDS011;57821;52.202;0.154;2023-05-07T12:23:47;6.60;;;4.15;;
70406;SDS011;57821;52.202;0.154;2023-05-07T12:26:13;6.63;;;3.75;;
70406;SDS011;57821;52.202;0.154;2023-05-07T12:28:40;6.43;;;4.20;;
70406;SDS011;57821;52.202;0.154;2023-05-07T12:31:07;5.90;;;3.58;;
70406;SDS011;57821;52.202;0.154;2023-05-07T12:33:34;5.65;;;3.33;;
70406;SDS011;57821;52.202;0.154;2023-05-07T12:36:07;7.45;;;3.85;;
70406;SDS011;57821;52.202;0.154;2023-05-07T12:38:35;6.00;;;3.92;;
70406;SDS011;57821;52.202;0.154;2023-05-07T12:41:03;6.22;;;3.33;;
70406;SDS011;57821;52.202;0.154;2023-05-07T12:43:30;6.18;;;3.53;;
70406;SDS011;57821;52.202;0.154;2023-05-07T12:45:59;6.50;;;3.58;;
70406;SDS011;57821;52.202;0.154;2023-05-07T12:48:29;6.57;;;3.33;;
70406;SDS011;57821;52.202;0.154;2023-05-07T12:50:56;4.32;;;2.45;;
70406;SDS011;57821;52.202;0.154;2023-05-07T12:53:25;7.63;;;2.78;;
70406;SDS011;57821;52.202;0.154;2023-05-07T12:55:53;5.80;;;2.55;;
70406;SDS011;57821;52.202;0.154;2023-05-07T12:58:28;5.15;;;2.88;;
70406;SDS011;57821;52.202;0.154;2023-05-07T13:00:58;5.78;;;3.00;;
70406;SDS011;57821;52.202;0.154;2023-05-07T13:03:28;6.40;;;2.53;;
70406;SDS011;57821;52.202;0.154;2023-05-07T13:06:00;5.75;;;3.13;;
70406;SDS011;57821;52.202;0.154;2023-05-07T13:08:30;6.10;;;3.40;;
70406;SDS011;57821;52.202;0.154;2023-05-07T13:10:59;6.22;;;3.65;;
70406;SDS011;57821;52.202;0.154;2023-05-07T13:13:26;4.65;;;2.38;;
70406;SDS011;57821;52.202;0.154;2023-05-07T13:15:57;5.50;;;2.78;;
70406;SDS011;57821;52.202;0.154;2023-05-07T13:18:25;4.80;;;2.42;;
70406;SDS011;57821;52.202;0.154;2023-05-07T13:20:53;4.95;;;2.50;;
70406;SDS011;57821;52.202;0.154;2023-05-07T13:23:20;6.60;;;3.80;;
70406;SDS011;57821;52.202;0.154;2023-05-07T13:25:47;6.32;;;3.78;;
70406;SDS011;57821;52.202;0.154;2023-05-07T13:28:15;4.93;;;2.83;;
70406;SDS011;57821;52.202;0.154;2023-05-07T13:30:42;5.85;;;2.40;;
70406;SDS011;57821;52.202;0.154;2023-05-07T13:33:09;5.13;;;3.15;;
70406;SDS011;57821;52.202;0.154;2023-05-07T13:35:35;6.45;;;3.63;;
70406;SDS011;57821;52.202;0.154;2023-05-07T13:38:02;6.72;;;3.70;;
70406;SDS011;57821;52.202;0.154;2023-05-07T13:40:29;6.93;;;4.10;;
70406;SDS011;57821;52.202;0.154;2023-05-07T13:42:59;6.35;;;3.83;;
70406;SDS011;57821;52.202;0.154;2023-05-07T13:45:26;5.88;;;3.60;;
70406;SDS011;57821;52.202;0.154;2023-05-07T13:47:53;7.03;;;4.35;;
70406;SDS011;57821;52.202;0.154;2023-05-07T13:50:19;6.53;;;3.13;;
70406;SDS011;57821;52.202;0.154;2023-05-07T13:52:46;5.50;;;2.95;;
70406;SDS011;57821;52.202;0.154;2023-05-07T13:55:13;5.63;;;2.75;;
70406;SDS011;57821;52.202;0.154;2023-05-07T13:57:39;6.20;;;3.50;;
70406;SDS011;57821;52.202;0.154;2023-05-07T14:00:06;6.63;;;3.65;;
70406;SDS011;57821;52.202;0.154;2023-05-07T14:02:40;11.45;;;3.25;;
70406;SDS011;57821;52.202;0.154;2023-05-07T14:05:07;7.20;;;3.15;;
70406;SDS011;57821;52.202;0.154;2023-05-07T14:07:34;5.55;;;3.30;;
70406;SDS011;57821;52.202;0.154;2023-05-07T14:10:00;5.30;;;2.85;;
70406;SDS011;57821;52.202;0.154;2023-05-07T14:12:27;6.00;;;3.00;;
70406;SDS011;57821;52.202;0.154;2023-05-07T14:14:53;6.32;;;3.30;;
70406;SDS011;57821;52.202;0.154;2023-05-07T14:17:21;7.20;;;4.07;;
70406;SDS011;57821;52.202;0.154;2023-05-07T14:19:47;5.95;;;3.50;;
70406;SDS011;57821;52.202;0.154;2023-05-07T14:22:14;6.47;;;3.50;;
70406;SDS011;57821;52.202;0.154;2023-05-07T14:24:40;7.18;;;4.50;;
70406;SDS011;57821;52.202;0.154;2023-05-07T14:27:07;6.63;;;4.05;;
70406;SDS011;57821;52.202;0.154;2023-05-07T14:29:34;7.07;;;4.30;;
70406;SDS011;57821;52.202;0.154;2023-05-07T14:32:01;7.30;;;3.90;;
70406;SDS011;57821;52.202;0.154;2023-05-07T14:34:28;5.93;;;3.78;;
70406;SDS011;57821;52.202;0.154;2023-05-07T14:36:54;6.57;;;3.33;;
70406;SDS011;57821;52.202;0.154;2023-05-07T14:39:21;5.50;;;3.10;;
70406;SDS011;57821;52.202;0.154;2023-05-07T14:41:48;6.05;;;3.33;;
70406;SDS011;57821;52.202;0.154;2023-05-07T14:44:14;6.28;;;2.75;;
70406;SDS011;57821;52.202;0.154;2023-05-07T14:46:41;7.20;;;3.30;;
70406;SDS011;57821;52.202;0.154;2023-05-07T14:49:08;7.82;;;3.65;;
70406;SDS011;57821;52.202;0.154;2023-05-07T14:51:34;6.47;;;2.90;;
70406;SDS011;57821;52.202;0.154;2023-05-07T14:54:01;7.53;;;2.97;;
70406;SDS011;57821;52.202;0.154;2023-05-07T14:56:27;5.82;;;3.03;;
70406;SDS011;57821;52.202;0.154;2023-05-07T14:58:54;4.97;;;2.28;;
70406;SDS011;57821;52.202;0.154;2023-05-07T15:01:21;6.47;;;2.60;;
70406;SDS011;57821;52.202;0.154;2023-05-07T15:03:47;5.65;;;2.60;;